Time;durP1;ratioP1;P1;durP2;ratioP2;P2;SDS_P1;SDS_P2;PMS_P1;PMS_P2;Temp;Humidity;BMP_temperature;BMP_pressure;BME280_temperature;BME280_humidity;BME280_pressure;Samples;Min_cycle;Max_cycle;Signal;HPM_P1;HPM_P2
2021/04/05 00:00:20;;;;;;;6.18;3.85;;;;;;;4.29;52.90;96337.44;5081705;28;20399;-76
2021/04/05 00:02:46;;;;;;;6.45;4.63;;;;;;;4.29;52.89;96326.25;5082051;28;20040;-76
2021/04/05 00:05:36;;;;;;;6.70;4.50;;;;;;;4.30;53.35;96312.25;5082531;28;20047;-76
2021/04/05 00:08:03;;;;;;;6.07;4.00;;;;;;;4.27;52.99;96316.03;5095607;28;20040;-76
2021/04/05 00:10:43;;;;;;;7.22;4.95;;;;;;;4.22;54.56;96321.78;5078059;28;20460;-76
2021/04/05 00:13:13;;;;;;;7.38;4.70;;;;;;;4.15;53.36;96317.47;5095160;28;20040;-76
2021/04/05 00:15:39;;;;;;;6.28;4.15;;;;;;;4.02;53.02;96318.91;5095022;28;20369;-76
2021/04/05 00:18:06;;;;;;;7.88;4.13;;;;;;;3.99;53.40;96323.63;5094787;28;20047;-76
2021/04/05 00:20:38;;;;;;;6.65;4.72;;;;;;;3.97;54.01;96323.00;5087765;28;20055;-76
2021/04/05 00:23:04;;;;;;;5.63;3.92;;;;;;;3.97;53.45;96315.22;5092473;28;20036;-76
2021/04/05 00:25:32;;;;;;;8.73;4.43;;;;;;;3.96;53.66;96304.06;5060463;28;20074;-76
2021/04/05 00:28:00;;;;;;;7.00;4.53;;;;;;;3.99;54.05;96310.66;5084497;28;20047;-76
2021/04/05 00:30:33;;;;;;;4.45;3.60;;;;;;;4.01;54.26;96317.31;5086501;28;20045;-76
2021/04/05 00:33:00;;;;;;;7.28;4.35;;;;;;;4.02;53.81;96312.91;5080579;28;20036;-76
2021/04/05 00:35:28;;;;;;;5.38;3.95;;;;;;;4.01;53.80;96308.69;5077728;28;20407;-76
2021/04/05 00:37:56;;;;;;;4.88;4.07;;;;;;;3.97;54.06;96305.69;5089837;28;20044;-76
2021/04/05 00:40:26;;;;;;;7.80;4.15;;;;;;;3.96;53.88;96298.06;5092190;28;20106;-76
2021/04/05 00:42:52;;;;;;;6.07;4.00;;;;;;;3.92;53.88;96297.63;5085833;28;20044;-76
2021/04/05 00:45:19;;;;;;;6.75;4.07;;;;;;;3.88;53.97;96300.75;5091231;28;20055;-76
2021/04/05 00:47:48;;;;;;;7.72;4.40;;;;;;;3.85;54.08;96302.72;5089117;28;20460;-76
2021/04/05 00:50:20;;;;;;;5.18;3.95;;;;;;;3.81;54.61;96300.66;5084951;28;20037;-76
2021/04/05 00:52:53;;;;;;;4.72;4.00;;;;;;;3.76;54.89;96305.56;5089107;28;20380;-76
2021/04/05 00:55:20;;;;;;;6.40;4.00;;;;;;;3.73;54.34;96298.16;5094151;28;20396;-76
2021/04/05 00:57:46;;;;;;;5.38;4.22;;;;;;;3.66;54.30;96288.50;5077313;28;20502;-76
2021/04/05 01:00:15;;;;;;;7.03;4.25;;;;;;;3.59;54.61;96282.41;5086046;28;20044;-76
2021/04/05 01:02:42;;;;;;;4.40;3.75;;;;;;;3.56;54.56;96276.78;5092404;28;20032;-76
2021/04/05 01:05:10;;;;;;;6.20;4.07;;;;;;;3.51;54.69;96273.91;5092736;28;20044;-77
2021/04/05 01:07:36;;;;;;;7.20;3.95;;;;;;;3.44;54.89;96268.63;5086300;28;20043;-77
2021/04/05 01:10:06;;;;;;;5.15;4.10;;;;;;;3.37;55.20;96268.53;5086794;28;20040;-76
2021/04/05 01:12:32;;;;;;;6.20;3.70;;;;;;;3.33;55.03;96251.72;5088060;28;20039;-76
2021/04/05 01:14:59;;;;;;;6.07;4.30;;;;;;;3.33;55.26;96241.34;5092048;28;20050;-76
2021/04/05 01:17:25;;;;;;;7.03;4.15;;;;;;;3.33;55.46;96241.34;5087369;28;20056;-76
2021/04/05 01:19:51;;;;;;;6.95;4.35;;;;;;;3.34;55.25;96234.38;5081362;28;20493;-76
2021/04/05 01:22:18;;;;;;;6.40;4.05;;;;;;;3.36;55.48;96235.00;5090886;28;20055;-76
2021/04/05 01:24:44;;;;;;;4.68;3.83;;;;;;;3.35;55.54;96236.00;5053844;28;20059;-76
2021/04/05 01:27:10;;;;;;;5.00;3.80;;;;;;;3.34;55.38;96237.78;5087807;28;20047;-77
2021/04/05 01:29:37;;;;;;;4.45;3.42;;;;;;;3.29;55.59;96240.09;5090530;28;20036;-76
2021/04/05 01:32:04;;;;;;;5.30;4.22;;;;;;;3.27;55.83;96236.06;5093154;28;20043;-78
2021/04/05 01:34:30;;;;;;;9.77;4.65;;;;;;;3.22;55.48;96234.03;5074098;28;20404;-76
2021/04/05 01:37:00;;;;;;;6.65;4.05;;;;;;;3.22;55.83;96239.19;5089406;28;20040;-76
2021/04/05 01:39:26;;;;;;;7.70;4.10;;;;;;;3.21;55.84;96237.56;5093691;28;20403;-76
2021/04/05 01:41:53;;;;;;;4.88;3.90;;;;;;;3.21;55.91;96235.81;5076155;28;20055;-76
2021/04/05 01:44:19;;;;;;;6.28;4.68;;;;;;;3.18;55.90;96227.56;5093438;28;20052;-76
2021/04/05 01:46:45;;;;;;;8.10;4.47;;;;;;;3.16;55.94;96216.59;5075488;28;20055;-76
2021/04/05 01:49:25;;;;;;;6.45;4.70;;;;;;;3.14;56.11;96208.19;5094387;28;20028;-76
2021/04/05 01:51:51;;;;;;;5.38;4.18;;;;;;;3.12;56.28;96208.34;5094143;28;20102;-76
2021/04/05 01:54:18;;;;;;;7.78;3.50;;;;;;;3.10;56.19;96197.34;5094103;28;20384;-76
2021/04/05 01:56:45;;;;;;;7.03;4.47;;;;;;;3.10;56.46;96199.16;5093236;28;20456;-76
2021/04/05 01:59:12;;;;;;;6.80;4.15;;;;;;;3.08;56.57;96201.91;5093246;28;20036;-76
2021/04/05 02:01:38;;;;;;;6.30;4.13;;;;;;;3.05;56.67;96190.13;5092399;28;20524;-76
2021/04/05 02:04:06;;;;;;;5.90;4.20;;;;;;;3.03;56.81;96197.25;5075887;28;20036;-76
2021/04/05 02:06:35;;;;;;;5.22;3.95;;;;;;;3.01;57.01;96170.72;5094134;28;20036;-76
2021/04/05 02:09:04;;;;;;;7.57;4.25;;;;;;;3.00;57.10;96168.31;5093091;28;20040;-76
2021/04/05 02:11:37;;;;;;;7.85;4.60;;;;;;;2.99;57.43;96166.72;5084131;28;20043;-76
2021/04/05 02:14:06;;;;;;;6.68;4.20;;;;;;;2.98;56.93;96157.31;5093534;28;20055;-76
2021/04/05 02:16:32;;;;;;;6.78;4.45;;;;;;;2.98;57.11;96154.72;5093358;28;20036;-76
2021/04/05 02:19:00;;;;;;;5.82;3.83;;;;;;;2.99;57.03;96153.75;5093826;28;20052;-76
2021/04/05 02:21:28;;;;;;;6.40;4.20;;;;;;;3.00;57.09;96138.06;5092544;28;20048;-76
2021/04/05 02:24:00;;;;;;;6.15;4.38;;;;;;;2.99;57.16;96131.25;5093885;28;20043;-76
2021/04/05 02:26:29;;;;;;;5.78;4.00;;;;;;;2.98;57.27;96140.00;5092406;28;20048;-76
2021/04/05 02:29:00;;;;;;;6.15;4.43;;;;;;;2.95;57.84;96134.38;5094112;28;20055;-76
2021/04/05 02:31:31;;;;;;;5.10;3.83;;;;;;;2.90;57.73;96129.72;5090643;28;20032;-76
2021/04/05 02:33:59;;;;;;;8.07;4.68;;;;;;;2.88;57.50;96123.09;5093321;28;20407;-77
2021/04/05 02:36:30;;;;;;;5.25;3.83;;;;;;;2.86;57.52;96110.34;5093584;28;20027;-76
2021/04/05 02:39:00;;;;;;;6.18;3.80;;;;;;;2.82;57.72;96115.06;5093686;28;20043;-76
2021/04/05 02:41:30;;;;;;;5.38;4.10;;;;;;;2.81;57.88;96112.66;5092346;28;20032;-76
2021/04/05 02:43:57;;;;;;;5.78;4.00;;;;;;;2.79;57.78;96112.84;5093126;28;20143;-76
2021/04/05 02:46:29;;;;;;;8.65;4.32;;;;;;;2.76;58.16;96120.94;5074141;28;20415;-76
2021/04/05 02:48:58;;;;;;;7.05;3.72;;;;;;;2.74;57.94;96112.56;5082404;28;20039;-76
2021/04/05 02:51:25;;;;;;;7.10;3.75;;;;;;;2.73;57.91;96110.13;5092887;28;20507;-76
2021/04/05 02:53:56;;;;;;;8.32;4.20;;;;;;;2.73;58.19;96104.97;5093339;28;20040;-77
2021/04/05 02:56:23;;;;;;;5.80;3.47;;;;;;;2.69;58.18;96094.16;5092590;28;20396;-76
2021/04/05 02:58:52;;;;;;;5.70;4.00;;;;;;;2.70;58.26;96094.97;5093064;28;20051;-76
2021/04/05 03:01:18;;;;;;;8.38;3.92;;;;;;;2.68;58.30;96089.97;5092021;28;20055;-76
2021/04/05 03:03:46;;;;;;;7.80;4.32;;;;;;;2.67;58.24;96096.13;5093729;28;20484;-76
2021/04/05 03:06:15;;;;;;;4.85;3.45;;;;;;;2.65;58.54;96092.91;5093200;28;20032;-76
2021/04/05 03:08:42;;;;;;;6.10;3.97;;;;;;;2.64;58.40;96088.69;5093009;28;20035;-76
2021/04/05 03:11:11;;;;;;;6.22;3.92;;;;;;;2.61;58.38;96078.72;5092375;28;20047;-76
2021/04/05 03:13:38;;;;;;;6.75;3.90;;;;;;;2.60;58.46;96083.09;5092853;28;20518;-76
2021/04/05 03:16:05;;;;;;;6.18;3.75;;;;;;;2.60;58.53;96085.69;5090383;28;20039;-76
2021/04/05 03:18:33;;;;;;;5.03;3.90;;;;;;;2.58;58.65;96082.47;5083334;28;20052;-76
2021/04/05 03:21:04;;;;;;;9.38;4.30;;;;;;;2.54;58.97;96080.38;5093004;28;20055;-76
2021/04/05 03:23:30;;;;;;;7.32;4.68;;;;;;;2.47;58.64;96071.72;5093043;28;20050;-76
2021/04/05 03:25:56;;;;;;;6.88;3.85;;;;;;;2.43;58.63;96069.47;5089744;28;20043;-76
2021/04/05 03:28:23;;;;;;;6.50;4.13;;;;;;;2.41;58.83;96057.69;5086600;28;20040;-76
2021/04/05 03:31:04;;;;;;;4.97;4.00;;;;;;;2.42;59.89;96061.91;5091630;28;20043;-76
2021/04/05 03:34:12;;;;;;;7.13;4.05;;;;;;;2.41;59.94;96055.91;5091787;28;20032;-76
2021/04/05 03:36:50;;;;;;;4.65;3.85;;;;;;;2.41;59.97;96042.16;5053137;28;20035;-76
2021/04/05 03:39:17;;;;;;;6.47;3.50;;;;;;;2.42;59.13;96026.47;5091006;28;20043;-76
2021/04/05 03:42:09;;;;;;;5.85;4.20;;;;;;;2.42;59.39;96017.91;5092377;28;20035;-76
2021/04/05 03:44:46;;;;;;;6.35;4.13;;;;;;;2.40;59.74;96006.94;5079130;28;20052;-76
2021/04/05 03:47:22;;;;;;;5.07;3.63;;;;;;;2.37;59.82;95992.56;5092400;28;20040;-76
2021/04/05 03:50:20;;;;;;;6.25;3.25;;;;;;;2.33;60.51;95996.50;5092487;28;20032;-76
2021/04/05 03:53:21;;;;;;;5.15;4.32;;;;;;;2.29;60.46;95997.81;5034755;28;20040;-76
2021/04/05 03:55:56;;;;;;;6.57;4.40;;;;;;;2.30;59.97;95990.88;5053898;28;20161;-76
2021/04/05 03:58:26;;;;;;;6.53;4.30;;;;;;;2.27;59.66;95991.19;5078368;28;20499;-76
2021/04/05 04:00:56;;;;;;;6.85;4.53;;;;;;;2.27;59.51;95991.19;5090436;28;20039;-76
2021/04/05 04:03:33;;;;;;;9.35;4.38;;;;;;;2.26;59.40;95981.84;5095581;28;20044;-76
2021/04/05 04:06:03;;;;;;;6.40;4.30;;;;;;;2.25;59.53;95983.63;5085874;28;20044;-76
2021/04/05 04:08:43;;;;;;;5.45;3.85;;;;;;;2.24;59.64;95982.00;5096477;28;20036;-76
2021/04/05 04:11:12;;;;;;;7.03;4.57;;;;;;;2.25;59.78;95978.47;5083511;28;20043;-77
2021/04/05 04:13:45;;;;;;;6.45;4.10;;;;;;;2.22;60.03;95974.44;5093722;28;20035;-76
2021/04/05 04:16:14;;;;;;;5.93;4.05;;;;;;;2.20;60.01;95970.41;5095600;28;20364;-76
2021/04/05 04:18:41;;;;;;;4.50;4.07;;;;;;;2.21;59.92;95972.84;5093576;28;20044;-76
2021/04/05 04:21:12;;;;;;;5.90;4.05;;;;;;;2.22;60.07;95971.84;5078466;28;20036;-76
2021/04/05 04:23:39;;;;;;;5.63;3.88;;;;;;;2.21;59.82;95961.69;5095756;28;20059;-76
2021/04/05 04:26:06;;;;;;;5.15;4.25;;;;;;;2.22;59.84;95955.53;5095749;28;20032;-76
2021/04/05 04:28:35;;;;;;;7.57;4.63;;;;;;;2.21;60.04;95959.91;5095757;28;20036;-76
2021/04/05 04:31:03;;;;;;;5.53;4.32;;;;;;;2.20;59.90;95958.28;5094054;28;20046;-76
2021/04/05 04:33:31;;;;;;;4.97;3.95;;;;;;;2.19;59.96;95951.50;5095811;28;20472;-76
2021/04/05 04:35:58;;;;;;;6.82;3.72;;;;;;;2.18;59.89;95941.34;5093752;28;20044;-76
2021/04/05 04:38:26;;;;;;;6.38;4.13;;;;;;;2.18;60.01;95936.97;5094786;28;20036;-76
2021/04/05 04:40:52;;;;;;;5.75;3.83;;;;;;;2.18;59.99;95934.41;5077627;28;20047;-76
2021/04/05 04:43:19;;;;;;;6.30;4.25;;;;;;;2.17;60.09;95940.53;5076722;28;20047;-76
2021/04/05 04:45:46;;;;;;;7.07;4.47;;;;;;;2.17;60.09;95937.94;5095504;28;20036;-76
2021/04/05 04:48:12;;;;;;;5.25;4.30;;;;;;;2.18;60.22;95936.97;5086765;28;20047;-76
2021/04/05 04:50:40;;;;;;;4.55;3.88;;;;;;;2.17;60.08;95927.59;5077208;28;20040;-76
2021/04/05 04:53:06;;;;;;;7.15;5.40;;;;;;;2.14;60.22;95915.03;5095680;28;20031;-76
2021/04/05 04:55:35;;;;;;;66.20;49.55;;;;;;;2.12;60.23;95916.16;5094758;28;20051;-76
2021/04/05 04:58:03;;;;;;;83.50;65.65;;;;;;;2.12;60.48;95917.00;5095215;28;20024;-76
2021/04/05 05:00:31;;;;;;;65.93;44.95;;;;;;;2.07;60.40;95911.53;5076927;28;20036;-76
2021/04/05 05:02:59;;;;;;;52.50;43.90;;;;;;;2.04;60.40;95914.50;5094602;28;20028;-76
2021/04/05 05:05:31;;;;;;;18.15;15.60;;;;;;;1.97;61.35;95911.78;5095213;28;20388;-76
2021/04/05 05:07:58;;;;;;;8.55;6.70;;;;;;;1.98;60.58;95910.03;5076458;28;20040;-76
2021/04/05 05:10:25;;;;;;;8.93;7.70;;;;;;;2.02;60.89;95911.28;5095109;28;20102;-76
2021/04/05 05:12:52;;;;;;;17.95;11.77;;;;;;;2.07;60.76;95902.97;5094820;28;20036;-76
2021/04/05 05:15:19;;;;;;;41.92;28.73;;;;;;;2.12;60.77;95893.72;5094923;28;20047;-76
2021/04/05 05:17:47;;;;;;;32.05;21.55;;;;;;;2.16;60.75;95894.97;5094358;28;20036;-76
2021/04/05 05:20:15;;;;;;;30.63;23.55;;;;;;;2.18;60.73;95887.00;5093597;28;20048;-76
2021/04/05 05:22:49;;;;;;;8.15;6.15;;;;;;;2.14;61.18;95878.81;5091165;28;20060;-76
2021/04/05 05:25:18;;;;;;;6.22;4.18;;;;;;;2.14;60.75;95893.53;5089195;28;20059;-76
2021/04/05 05:27:50;;;;;;;8.38;5.53;;;;;;;2.16;61.21;95889.78;5094884;28;20048;-76
2021/04/05 05:30:22;;;;;;;6.47;4.90;;;;;;;2.21;60.88;95877.13;5076705;28;20032;-76
2021/04/05 05:32:52;;;;;;;7.40;6.70;;;;;;;2.26;61.03;95865.44;5093952;28;20042;-76
2021/04/05 05:35:23;;;;;;;6.25;4.80;;;;;;;2.27;61.34;95867.03;5094998;28;20047;-76
2021/04/05 05:37:50;;;;;;;7.88;4.53;;;;;;;2.28;61.21;95860.88;5059213;28;20036;-76
2021/04/05 05:40:23;;;;;;;9.48;4.35;;;;;;;2.33;61.42;95866.31;5086736;28;20051;-76
2021/04/05 05:42:49;;;;;;;7.05;4.35;;;;;;;2.38;60.96;95861.41;5095075;28;20400;-76
2021/04/05 05:45:22;;;;;;;5.35;3.95;;;;;;;2.42;61.34;95855.69;5093781;28;20047;-75
2021/04/05 05:48:06;;;;;;;8.80;6.50;;;;;;;2.49;61.90;95855.75;5093784;28;20028;-76
2021/04/05 05:50:47;;;;;;;7.68;6.10;;;;;;;2.54;62.11;95850.03;5094480;28;20042;-76
2021/04/05 05:53:20;;;;;;;7.95;5.68;;;;;;;2.59;61.59;95845.91;5094419;28;20024;-76
2021/04/05 05:56:12;;;;;;;6.80;4.63;;;;;;;2.61;62.47;95843.94;5093762;28;20040;-76
2021/04/05 05:58:49;;;;;;;6.05;4.15;;;;;;;2.60;62.10;95832.00;5080776;28;20024;-76
2021/04/05 06:01:38;;;;;;;5.95;4.30;;;;;;;2.62;62.03;95827.44;5094036;28;20038;-76
2021/04/05 06:04:28;;;;;;;6.47;4.70;;;;;;;2.63;61.62;95826.44;5094431;28;20373;-76
2021/04/05 06:07:11;;;;;;;9.02;4.30;;;;;;;2.70;61.68;95828.31;5075628;28;20491;-76
2021/04/05 06:09:52;;;;;;;6.90;4.80;;;;;;;2.72;61.53;95824.53;5093925;28;20039;-76
2021/04/05 06:12:29;;;;;;;8.15;5.00;;;;;;;2.78;61.67;95826.41;5093549;28;20040;-77
2021/04/05 06:15:10;;;;;;;4.65;4.03;;;;;;;2.88;62.06;95831.28;5075742;28;20048;-76
2021/04/05 06:17:51;;;;;;;5.35;4.20;;;;;;;2.99;61.71;95827.41;5093611;28;20040;-76
2021/04/05 06:20:23;;;;;;;5.13;4.47;;;;;;;3.03;61.11;95821.66;5085613;28;20051;-76
2021/04/05 06:23:37;;;;;;;7.20;4.25;;;;;;;3.18;61.79;95837.13;5086021;28;20059;-76
2021/04/05 06:26:10;;;;;;;6.30;4.47;;;;;;;3.26;61.18;95820.66;5093256;28;20035;-76
2021/04/05 06:29:04;;;;;;;6.10;3.90;;;;;;;3.33;61.38;95815.53;5083914;28;20041;-76
2021/04/05 06:31:42;;;;;;;5.63;4.03;;;;;;;3.41;61.03;95817.97;5091124;28;20031;-76
2021/04/05 06:34:33;;;;;;;6.38;4.00;;;;;;;3.56;61.32;95799.75;5093232;28;20039;-76
2021/04/05 06:37:14;;;;;;;11.95;4.78;;;;;;;3.68;60.90;95792.25;5092495;28;20047;-76
2021/04/05 06:39:47;;;;;;;5.93;5.00;;;;;;;3.84;60.79;95791.91;5092438;28;20369;-76
2021/04/05 06:42:24;;;;;;;7.65;4.25;;;;;;;3.98;60.37;95785.81;5086054;28;20051;-76
2021/04/05 06:45:27;;;;;;;6.78;4.45;;;;;;;4.10;59.78;95782.69;5084850;28;20032;-76
2021/04/05 06:48:38;;;;;;;5.97;3.97;;;;;;;4.22;60.17;95779.34;5076497;28;20048;-76
2021/04/05 06:51:20;;;;;;;6.30;3.80;;;;;;;4.28;59.82;95772.56;5066818;28;20072;-76
2021/04/05 06:54:08;;;;;;;5.53;3.55;;;;;;;4.40;59.77;95772.81;5093606;28;20039;-76
2021/04/05 06:56:55;;;;;;;7.47;4.30;;;;;;;4.50;59.56;95756.84;5092681;28;20490;-76
2021/04/05 06:59:57;;;;;;;4.13;3.72;;;;;;;4.58;59.53;95751.47;5084647;28;20040;-77
2021/04/05 07:02:36;;;;;;;6.70;4.18;;;;;;;4.67;59.51;95740.69;5085394;28;20043;-76
2021/04/05 07:05:33;;;;;;;7.93;3.75;;;;;;;4.78;58.69;95733.31;5082050;28;20392;-76
2021/04/05 07:08:25;;;;;;;16.25;10.77;;;;;;;4.88;58.85;95731.94;5073843;28;20522;-76
2021/04/05 07:11:08;;;;;;;8.57;6.72;;;;;;;5.07;58.96;95742.53;5092990;28;20028;-76
2021/04/05 07:14:03;;;;;;;8.05;4.22;;;;;;;5.35;57.51;95725.91;5088219;28;20480;-76
2021/04/05 07:16:47;;;;;;;;;;;;;;;5.56;57.47;95738.66;5092740;28;20032;-76
2021/04/05 07:19:30;;;;;;;67.10;51.45;;;;;;;5.77;58.34;95739.41;5091319;28;19916;-77
2021/04/05 07:22:13;;;;;;;17.48;15.40;;;;;;;6.30;56.33;95732.22;5092728;28;20048;-77
2021/04/05 07:24:48;;;;;;;5.90;5.05;;;;;;;6.99;57.64;95735.00;5093338;28;20032;-76
2021/04/05 07:27:21;;;;;;;5.93;4.15;;;;;;;7.63;55.17;95706.94;5092123;28;20024;-77
2021/04/05 07:30:05;;;;;;;5.65;4.20;;;;;;;8.09;51.29;95679.47;5093054;28;20036;-76
2021/04/05 07:32:53;;;;;;;4.78;3.63;;;;;;;8.33;53.23;95698.66;5094113;28;20040;-77
2021/04/05 07:35:29;;;;;;;5.93;4.90;;;;;;;8.50;51.56;95683.19;5084393;28;20032;-76
2021/04/05 07:38:02;;;;;;;6.38;4.18;;;;;;;8.63;51.06;95676.97;5092522;28;20463;-77
2021/04/05 07:40:34;;;;;;;9.00;4.55;;;;;;;9.01;52.41;95686.22;5093182;28;20052;-78
2021/04/05 07:43:06;;;;;;;8.73;4.40;;;;;;;9.55;52.08;95684.28;5081958;28;20040;-77
2021/04/05 07:45:42;;;;;;;7.57;4.65;;;;;;;10.09;48.11;95654.44;5095968;28;20043;-77
2021/04/05 07:48:28;;;;;;;7.70;4.63;;;;;;;10.45;46.01;95626.25;5091320;28;20032;-77
2021/04/05 07:51:05;;;;;;;11.27;4.95;;;;;;;10.80;47.41;95657.50;5084331;28;21671;-78
2021/04/05 07:53:51;;;;;;;8.13;4.80;;;;;;;11.14;45.78;95637.28;5085970;28;20479;-78
2021/04/05 07:56:35;;;;;;;10.07;4.75;;;;;;;11.30;45.15;95645.41;5091381;28;20048;-78
2021/04/05 07:59:21;;;;;;;9.27;4.85;;;;;;;11.44;44.59;95657.13;5087085;28;20047;-77
2021/04/05 08:01:59;;;;;;;9.68;5.28;;;;;;;11.47;43.30;95663.72;5090861;28;20047;-78
2021/04/05 08:04:58;;;;;;;5.95;4.30;;;;;;;11.75;42.84;95658.28;5073411;28;20047;-77
2021/04/05 08:07:46;;;;;;;8.05;4.10;;;;;;;12.17;44.09;95663.00;5091381;28;20044;-78
2021/04/05 08:10:22;;;;;;;7.25;4.05;;;;;;;12.41;41.39;95664.56;5093411;28;20040;-78
2021/04/05 08:13:14;;;;;;;6.13;3.70;;;;;;;12.59;40.64;95654.47;5087300;28;20060;-77
2021/04/05 08:16:13;;;;;;;7.13;3.70;;;;;;;12.59;40.03;95654.47;5088869;28;20465;-78
2021/04/05 08:18:53;;;;;;;6.43;3.55;;;;;;;12.27;40.41;95675.47;5089307;28;20058;-78
2021/04/05 08:21:24;;;;;;;6.40;3.45;;;;;;;12.00;42.47;95682.53;5086526;28;20049;-78
2021/04/05 08:23:53;;;;;;;7.70;3.13;;;;;;;11.83;42.76;95690.44;5089512;28;20032;-78
2021/04/05 08:27:00;;;;;;;6.57;3.15;;;;;;;11.62;40.72;95677.06;5080765;28;20039;-78
2021/04/05 08:29:53;;;;;;;6.65;2.75;;;;;;;11.32;40.21;95682.69;5085830;28;20055;-78
2021/04/05 08:32:24;;;;;;;5.22;2.80;;;;;;;11.07;41.45;95691.00;5082297;28;20036;-78
2021/04/05 08:35:13;;;;;;;6.03;2.67;;;;;;;10.91;42.41;95695.97;5093817;28;20032;-78
2021/04/05 08:37:58;;;;;;;5.88;3.03;;;;;;;10.80;42.41;95688.19;5090750;28;20106;-78
2021/04/05 08:40:30;;;;;;;3.70;2.85;;;;;;;10.64;41.63;95689.75;5084315;28;20040;-77
2021/04/05 08:43:33;;;;;;;5.93;2.90;;;;;;;10.55;41.76;95682.28;5089623;28;20051;-77
2021/04/05 08:46:09;;;;;;;5.40;2.80;;;;;;;10.46;42.14;95685.53;5092993;28;20036;-78
2021/04/05 08:48:38;;;;;;;5.75;2.65;;;;;;;10.42;42.52;95679.16;5093461;28;20032;-78
2021/04/05 08:51:10;;;;;;;4.90;2.92;;;;;;;10.33;41.57;95665.63;5094674;28;20040;-77
2021/04/05 08:53:46;;;;;;;5.25;2.58;;;;;;;10.23;42.08;95657.56;5090355;28;20044;-77
2021/04/05 08:56:16;;;;;;;6.35;3.03;;;;;;;10.18;42.49;95670.56;5077259;28;20039;-78
2021/04/05 08:58:50;;;;;;;5.65;2.83;;;;;;;10.09;42.02;95665.69;5095507;28;20035;-77
2021/04/05 09:01:25;;;;;;;5.75;2.65;;;;;;;10.02;42.39;95662.44;5082384;28;20047;-77
2021/04/05 09:03:53;;;;;;;5.03;2.75;;;;;;;9.98;42.65;95671.78;5095636;28;20050;-77
2021/04/05 09:06:34;;;;;;;5.15;2.60;;;;;;;10.00;41.94;95664.50;5082875;28;20032;-77
2021/04/05 09:09:03;;;;;;;7.55;2.92;;;;;;;10.00;42.67;95666.31;5095527;28;20048;-77
2021/04/05 09:11:35;;;;;;;3.60;2.83;;;;;;;9.94;42.50;95663.59;5095492;28;20460;-77
2021/04/05 09:14:02;;;;;;;4.60;2.67;;;;;;;9.95;42.68;95672.22;5095005;28;20448;-78
2021/04/05 09:16:45;;;;;;;3.92;2.72;;;;;;;9.90;42.28;95670.31;5094938;28;20384;-78
2021/04/05 09:19:49;;;;;;;4.68;2.47;;;;;;;9.86;42.35;95666.56;5095408;28;20405;-78
2021/04/05 09:22:48;;;;;;;4.30;3.10;;;;;;;9.82;42.08;95654.97;5086924;28;20052;-78
2021/04/05 09:25:25;;;;;;;5.30;3.25;;;;;;;9.81;42.16;95642.91;5088545;28;20039;-77
2021/04/05 09:27:58;;;;;;;4.75;3.03;;;;;;;9.84;42.21;95641.66;5095220;28;20032;-78
2021/04/05 09:30:44;;;;;;;4.90;3.38;;;;;;;9.83;42.00;95640.06;5094621;28;20039;-78
2021/04/05 09:33:22;;;;;;;6.97;3.22;;;;;;;9.80;42.28;95638.69;5077030;28;20468;-77
2021/04/05 09:36:12;;;;;;;9.00;3.40;;;;;;;9.76;42.39;95629.72;5085027;28;20043;-77
2021/04/05 09:38:56;;;;;;;5.10;3.38;;;;;;;9.66;42.28;95629.50;5094760;28;20040;-78
2021/04/05 09:41:46;;;;;;;4.85;3.15;;;;;;;9.62;42.30;95625.78;5094549;28;20067;-78
2021/04/05 09:44:40;;;;;;;5.95;3.05;;;;;;;9.55;42.19;95625.88;5081789;28;20044;-78
2021/04/05 09:47:29;;;;;;;4.32;2.95;;;;;;;9.46;42.28;95619.44;5094514;28;20042;-78
2021/04/05 09:50:08;;;;;;;6.35;3.33;;;;;;;9.47;42.43;95619.22;5094372;28;20036;-78
2021/04/05 09:52:45;;;;;;;6.10;3.00;;;;;;;9.48;42.80;95615.56;5093383;28;20460;-78
2021/04/05 09:55:19;;;;;;;6.63;3.78;;;;;;;9.47;42.67;95613.16;5094085;28;20368;-78
2021/04/05 09:58:06;;;;;;;6.78;3.53;;;;;;;9.44;42.23;95611.81;5094109;28;20032;-78
2021/04/05 10:00:34;;;;;;;6.10;3.40;;;;;;;9.45;42.66;95607.38;5094127;28;20040;-77
2021/04/05 10:03:05;;;;;;;6.57;5.30;;;;;;;9.44;42.66;95598.72;5094430;28;20047;-77
2021/04/05 10:05:35;;;;;;;5.28;3.50;;;;;;;9.40;42.50;95589.75;5094112;28;20031;-78
2021/04/05 10:08:02;;;;;;;4.90;2.90;;;;;;;9.41;42.57;95588.72;5069707;28;20039;-78
2021/04/05 10:10:36;;;;;;;5.53;3.53;;;;;;;9.41;42.25;95587.91;5087902;28;20039;-78
2021/04/05 10:13:06;;;;;;;4.32;2.70;;;;;;;9.43;42.36;95578.00;5069303;28;20491;-78
2021/04/05 10:15:32;;;;;;;6.20;4.03;;;;;;;9.43;42.54;95560.50;5093535;28;20047;-78
2021/04/05 10:18:07;;;;;;;7.28;3.80;;;;;;;9.49;42.56;95566.63;5091650;28;20480;-78
2021/04/05 10:20:34;;;;;;;7.28;4.22;;;;;;;9.54;42.36;95556.25;5083296;28;20035;-78
2021/04/05 10:23:08;;;;;;;9.38;6.10;;;;;;;9.56;41.58;95554.22;5093182;28;20035;-78
2021/04/05 10:25:35;;;;;;;11.02;6.70;;;;;;;9.57;41.91;95562.84;5088713;28;20040;-78
2021/04/05 10:28:08;;;;;;;34.38;30.55;;;;;;;9.59;41.64;95550.31;5094116;28;20392;-77
2021/04/05 10:30:37;;;;;;;16.60;14.82;;;;;;;9.59;41.78;95543.25;5075244;28;20028;-77
2021/04/05 10:33:07;;;;;;;8.50;7.28;;;;;;;9.64;41.14;95548.59;5093286;28;20036;-77
2021/04/05 10:35:41;;;;;;;6.80;5.03;;;;;;;9.71;41.22;95545.84;5093806;28;20032;-77
2021/04/05 10:38:07;;;;;;;7.85;5.55;;;;;;;9.73;41.40;95543.78;5083093;28;20043;-77
2021/04/05 10:40:34;;;;;;;7.43;4.07;;;;;;;9.73;41.22;95535.94;5093561;28;20030;-77
2021/04/05 10:43:22;;;;;;;6.88;3.60;;;;;;;9.75;40.08;95531.25;5093300;28;20036;-77
2021/04/05 10:46:05;;;;;;;11.40;7.28;;;;;;;9.79;40.14;95526.34;5093397;28;20051;-78
2021/04/05 10:48:50;;;;;;;7.93;5.32;;;;;;;9.88;39.41;95524.94;5094153;28;20043;-78
2021/04/05 10:51:27;;;;;;;8.13;4.88;;;;;;;9.96;40.17;95524.56;5060382;28;20468;-77
2021/04/05 10:54:04;;;;;;;5.43;3.03;;;;;;;10.03;39.17;95519.16;5075284;28;20036;-78
2021/04/05 10:56:36;;;;;;;6.43;4.47;;;;;;;10.15;39.86;95530.38;5093585;28;20035;-77
2021/04/05 10:59:13;;;;;;;6.10;3.88;;;;;;;10.28;38.37;95514.31;5093783;28;20039;-77
2021/04/05 11:01:48;;;;;;;7.63;4.50;;;;;;;10.42;37.27;95527.16;5081174;28;20032;-77
2021/04/05 11:04:16;;;;;;;4.82;3.00;;;;;;;10.55;38.50;95530.22;5093327;28;20032;-78
2021/04/05 11:06:44;;;;;;;6.40;4.43;;;;;;;10.67;38.25;95532.75;5091910;28;20110;-77
2021/04/05 11:09:11;;;;;;;7.18;3.03;;;;;;;10.84;37.61;95539.81;5092519;28;20052;-78
2021/04/05 11:11:40;;;;;;;7.07;5.38;;;;;;;10.97;36.68;95534.22;5093410;28;20483;-78
2021/04/05 11:14:14;;;;;;;6.38;3.67;;;;;;;11.05;36.09;95519.91;5092296;28;20045;-77
2021/04/05 11:16:49;;;;;;;5.75;3.22;;;;;;;11.08;33.66;95508.91;5093409;28;20050;-77
2021/04/05 11:19:24;;;;;;;5.20;3.70;;;;;;;11.14;34.06;95507.94;5093127;28;20044;-78
2021/04/05 11:21:51;;;;;;;8.52;7.72;;;;;;;11.19;35.90;95510.59;5093077;28;20115;-77
2021/04/05 11:24:30;;;;;;;5.00;3.50;;;;;;;11.24;34.82;95494.94;5093511;28;20032;-78
2021/04/05 11:26:58;;;;;;;7.97;5.53;;;;;;;11.26;35.41;95499.94;5093223;28;20036;-78
2021/04/05 11:29:29;;;;;;;4.78;3.58;;;;;;;11.30;35.32;95498.41;5092954;28;20035;-78
2021/04/05 11:31:57;;;;;;;7.95;3.83;;;;;;;11.34;35.26;95489.00;5092172;28;20048;-77
2021/04/05 11:34:31;;;;;;;5.00;3.28;;;;;;;11.37;34.37;95491.13;5093198;28;20040;-78
2021/04/05 11:36:59;;;;;;;21.57;18.07;;;;;;;11.38;35.08;95483.03;5093255;28;20040;-78
2021/04/05 11:39:33;;;;;;;6.70;5.55;;;;;;;11.47;34.64;95480.75;5093218;28;20274;-77
2021/04/05 11:42:03;;;;;;;4.00;3.10;;;;;;;11.58;34.47;95484.25;5092163;28;20056;-78
2021/04/05 11:44:46;;;;;;;7.28;4.53;;;;;;;11.68;34.00;95489.63;5092921;28;20043;-77
2021/04/05 11:47:15;;;;;;;5.95;3.42;;;;;;;11.77;34.65;95484.72;5092999;28;20043;-77
2021/04/05 11:49:41;;;;;;;5.05;3.40;;;;;;;11.82;34.52;95471.59;5091404;28;20055;-78
2021/04/05 11:52:26;;;;;;;5.32;3.33;;;;;;;11.88;34.50;95470.63;5092944;28;20040;-78
2021/04/05 11:54:57;;;;;;;3.88;3.17;;;;;;;11.95;34.28;95473.09;5093198;28;20460;-78
2021/04/05 11:57:27;;;;;;;6.90;3.67;;;;;;;12.03;34.34;95482.31;5092828;28;20032;-77
2021/04/05 12:00:00;;;;;;;6.22;4.05;;;;;;;12.02;33.81;95475.50;5093243;28;20028;-78
2021/04/05 12:02:35;;;;;;;8.13;3.92;;;;;;;12.01;34.13;95477.34;5092888;28;20043;-78
2021/04/05 12:05:07;;;;;;;7.78;4.28;;;;;;;12.01;34.57;95466.03;5092655;28;20078;-78
2021/04/05 12:07:35;;;;;;;7.38;5.25;;;;;;;12.01;34.38;95473.91;5092414;28;20040;-78
2021/04/05 12:10:07;;;;;;;6.10;4.25;;;;;;;12.01;34.65;95476.53;5091760;28;20052;-78
2021/04/05 12:12:40;;;;;;;6.50;4.18;;;;;;;11.94;34.52;95474.13;5092576;28;20047;-78